sensor_id;sensor_type;location;lat;lon;timestamp;pressure;altitude;pressure_sealevel;temperature;humidity
38289;BME280;24092;53.370;-6.588;2022-10-15T00:00:52;99258.27;;;4.77;100.00
38289;BME280;24092;53.370;-6.588;2022-10-15T00:03:19;99248.93;;;5.14;100.00
38289;BME280;24092;53.370;-6.588;2022-10-15T00:05:46;99235.27;;;5.06;100.00
38289;BME280;24092;53.370;-6.588;2022-10-15T00:08:13;99225.29;;;5.18;100.00
38289;BME280;24092;53.370;-6.588;2022-10-15T00:10:40;99216.08;;;4.74;100.00
38289;BME280;24092;53.370;-6.588;2022-10-15T00:13:07;99209.90;;;4.73;100.00
38289;BME280;24092;53.370;-6.588;2022-10-15T00:15:35;99202.08;;;4.91;100.00
38289;BME280;24092;53.370;-6.588;2022-10-15T00:18:03;99200.87;;;5.05;100.00
38289;BME280;24092;53.370;-6.588;2022-10-15T00:20:30;99201.03;;;5.60;100.00
38289;BME280;24092;53.370;-6.588;2022-10-15T00:22:57;99204.52;;;5.80;100.00
38289;BME280;24092;53.370;-6.588;2022-10-15T00:25:24;99200.46;;;5.35;100.00
38289;BME280;24092;53.370;-6.588;2022-10-15T00:27:51;99192.80;;;5.27;100.00
38289;BME280;24092;53.370;-6.588;2022-10-15T00:30:18;99194.13;;;5.12;100.00
38289;BME280;24092;53.370;-6.588;2022-10-15T00:32:45;99204.25;;;4.97;100.00
38289;BME280;24092;53.370;-6.588;2022-10-15T00:35:12;99207.98;;;4.86;100.00
38289;BME280;24092;53.370;-6.588;2022-10-15T00:37:39;99202.30;;;5.14;100.00
38289;BME280;24092;53.370;-6.588;2022-10-15T00:40:07;99200.41;;;5.27;100.00
38289;BME280;24092;53.370;-6.588;2022-10-15T00:42:34;99190.09;;;5.35;100.00
38289;BME280;24092;53.370;-6.588;2022-10-15T00:45:01;99191.29;;;5.53;100.00
38289;BME280;24092;53.370;-6.588;2022-10-15T00:47:34;99189.86;;;5.16;100.00
38289;BME280;24092;53.370;-6.588;2022-10-15T00:50:06;99178.17;;;5.02;100.00
38289;BME280;24092;53.370;-6.588;2022-10-15T00:52:42;99170.96;;;5.45;100.00
38289;BME280;24092;53.370;-6.588;2022-10-15T00:55:13;99160.33;;;5.51;100.00
38289;BME280;24092;53.370;-6.588;2022-10-15T00:57:42;99154.02;;;5.62;100.00
38289;BME280;24092;53.370;-6.588;2022-10-15T01:00:13;99143.83;;;5.37;100.00
38289;BME280;24092;53.370;-6.588;2022-10-15T01:02:41;99137.14;;;5.39;100.00
38289;BME280;24092;53.370;-6.588;2022-10-15T01:05:10;99133.09;;;5.31;100.00
38289;BME280;24092;53.370;-6.588;2022-10-15T01:07:37;99134.95;;;5.43;100.00
38289;BME280;24092;53.370;-6.588;2022-10-15T01:10:05;99129.19;;;4.89;100.00
38289;BME280;24092;53.370;-6.588;2022-10-15T01:12:42;99122.88;;;5.27;100.00
38289;BME280;24092;53.370;-6.588;2022-10-15T01:15:18;99114.42;;;5.12;100.00
38289;BME280;24092;53.370;-6.588;2022-10-15T01:17:51;99101.70;;;5.37;100.00
38289;BME280;24092;53.370;-6.588;2022-10-15T01:20:39;99090.19;;;5.02;100.00
38289;BME280;24092;53.370;-6.588;2022-10-15T01:23:27;99077.41;;;5.48;100.00
38289;BME280;24092;53.370;-6.588;2022-10-15T01:26:12;99072.59;;;5.18;100.00
38289;BME280;24092;53.370;-6.588;2022-10-15T01:28:50;99066.56;;;4.94;100.00
38289;BME280;24092;53.370;-6.588;2022-10-15T01:31:24;99058.68;;;5.20;100.00
38289;BME280;24092;53.370;-6.588;2022-10-15T01:34:00;99052.71;;;5.22;100.00
38289;BME280;24092;53.370;-6.588;2022-10-15T01:36:33;99044.70;;;4.96;100.00
38289;BME280;24092;53.370;-6.588;2022-10-15T01:39:07;99042.61;;;5.38;100.00
38289;BME280;24092;53.370;-6.588;2022-10-15T01:41:41;99038.49;;;5.54;100.00
38289;BME280;24092;53.370;-6.588;2022-10-15T01:44:12;99035.31;;;5.01;100.00
38289;BME280;24092;53.370;-6.588;2022-10-15T01:46:44;99033.22;;;5.51;100.00
38289;BME280;24092;53.370;-6.588;2022-10-15T01:49:15;99027.16;;;5.47;100.00
38289;BME280;24092;53.370;-6.588;2022-10-15T01:51:44;99024.85;;;5.10;100.00
38289;BME280;24092;53.370;-6.588;2022-10-15T01:54:14;99022.47;;;5.35;100.00
38289;BME280;24092;53.370;-6.588;2022-10-15T01:56:44;99017.19;;;5.90;100.00
38289;BME280;24092;53.370;-6.588;2022-10-15T01:59:12;99019.05;;;5.90;100.00
38289;BME280;24092;53.370;-6.588;2022-10-15T02:01:41;99010.49;;;5.62;100.00
38289;BME280;24092;53.370;-6.588;2022-10-15T02:04:17;99009.14;;;5.45;100.00
38289;BME280;24092;53.370;-6.588;2022-10-15T02:06:48;99002.61;;;5.05;100.00
38289;BME280;24092;53.370;-6.588;2022-10-15T02:09:24;98996.45;;;5.35;100.00
38289;BME280;24092;53.370;-6.588;2022-10-15T02:11:59;99006.28;;;4.97;100.00
38289;BME280;24092;53.370;-6.588;2022-10-15T02:14:35;99004.59;;;5.22;100.00
38289;BME280;24092;53.370;-6.588;2022-10-15T02:17:07;99004.18;;;5.07;100.00
38289;BME280;24092;53.370;-6.588;2022-10-15T02:19:42;98998.49;;;5.07;100.00
38289;BME280;24092;53.370;-6.588;2022-10-15T02:22:13;98998.60;;;5.23;100.00
38289;BME280;24092;53.370;-6.588;2022-10-15T02:24:46;99003.23;;;4.65;100.00
38289;BME280;24092;53.370;-6.588;2022-10-15T02:27:17;99003.11;;;4.62;100.00
38289;BME280;24092;53.370;-6.588;2022-10-15T02:29:48;99004.19;;;4.66;100.00
38289;BME280;24092;53.370;-6.588;2022-10-15T02:32:19;98999.63;;;4.77;100.00
38289;BME280;24092;53.370;-6.588;2022-10-15T02:34:48;98998.05;;;4.78;100.00
38289;BME280;24092;53.370;-6.588;2022-10-15T02:37:19;99009.37;;;4.32;100.00
38289;BME280;24092;53.370;-6.588;2022-10-15T02:39:46;99007.06;;;4.16;100.00
38289;BME280;24092;53.370;-6.588;2022-10-15T02:42:14;99015.35;;;4.07;100.00
38289;BME280;24092;53.370;-6.588;2022-10-15T02:44:42;99032.15;;;4.24;100.00
38289;BME280;24092;53.370;-6.588;2022-10-15T02:47:09;99037.71;;;3.97;100.00
38289;BME280;24092;53.370;-6.588;2022-10-15T02:49:38;99023.33;;;3.37;100.00
38289;BME280;24092;53.370;-6.588;2022-10-15T02:52:05;99019.96;;;3.45;100.00
38289;BME280;24092;53.370;-6.588;2022-10-15T02:54:32;99012.78;;;3.28;100.00
38289;BME280;24092;53.370;-6.588;2022-10-15T02:56:59;99013.96;;;3.33;100.00
38289;BME280;24092;53.370;-6.588;2022-10-15T02:59:26;99008.39;;;3.78;100.00
38289;BME280;24092;53.370;-6.588;2022-10-15T03:01:53;98992.70;;;3.61;100.00
38289;BME280;24092;53.370;-6.588;2022-10-15T03:04:20;98995.67;;;3.93;100.00
38289;BME280;24092;53.370;-6.588;2022-10-15T03:06:47;98983.68;;;4.48;100.00
38289;BME280;24092;53.370;-6.588;2022-10-15T03:09:14;98948.99;;;4.30;100.00
38289;BME280;24092;53.370;-6.588;2022-10-15T03:11:41;98885.25;;;2.19;100.00
38289;BME280;24092;53.370;-6.588;2022-10-15T03:14:08;98920.56;;;4.63;100.00
38289;BME280;24092;53.370;-6.588;2022-10-15T03:16:35;98915.13;;;5.61;100.00
38289;BME280;24092;53.370;-6.588;2022-10-15T03:19:02;98913.46;;;5.19;100.00
38289;BME280;24092;53.370;-6.588;2022-10-15T03:21:29;98922.13;;;5.83;100.00
38289;BME280;24092;53.370;-6.588;2022-10-15T03:23:57;98932.10;;;6.15;100.00
38289;BME280;24092;53.370;-6.588;2022-10-15T03:26:25;98932.02;;;5.74;100.00
38289;BME280;24092;53.370;-6.588;2022-10-15T03:28:51;98929.65;;;4.91;100.00
38289;BME280;24092;53.370;-6.588;2022-10-15T03:31:18;98929.21;;;4.11;100.00
38289;BME280;24092;53.370;-6.588;2022-10-15T03:33:45;98910.24;;;3.60;100.00
38289;BME280;24092;53.370;-6.588;2022-10-15T03:36:13;98914.45;;;3.83;100.00
38289;BME280;24092;53.370;-6.588;2022-10-15T03:38:40;98911.75;;;4.01;100.00
38289;BME280;24092;53.370;-6.588;2022-10-15T03:41:07;98921.03;;;4.36;100.00
38289;BME280;24092;53.370;-6.588;2022-10-15T03:43:34;98923.98;;;3.86;100.00
38289;BME280;24092;53.370;-6.588;2022-10-15T03:46:01;98922.96;;;3.97;100.00
38289;BME280;24092;53.370;-6.588;2022-10-15T03:48:29;98926.09;;;4.23;100.00
38289;BME280;24092;53.370;-6.588;2022-10-15T03:50:56;98927.50;;;3.46;100.00
38289;BME280;24092;53.370;-6.588;2022-10-15T03:53:23;98915.76;;;4.13;100.00
38289;BME280;24092;53.370;-6.588;2022-10-15T03:55:50;98919.07;;;3.18;100.00
38289;BME280;24092;53.370;-6.588;2022-10-15T03:58:17;98919.72;;;3.58;100.00
38289;BME280;24092;53.370;-6.588;2022-10-15T04:00:44;98921.06;;;3.48;100.00
38289;BME280;24092;53.370;-6.588;2022-10-15T04:03:11;98920.58;;;3.08;100.00
38289;BME280;24092;53.370;-6.588;2022-10-15T04:05:39;98911.19;;;3.15;100.00
38289;BME280;24092;53.370;-6.588;2022-10-15T04:10:42;98902.31;;;2.46;100.00
38289;BME280;24092;53.370;-6.588;2022-10-15T04:13:09;98901.99;;;2.83;100.00
38289;BME280;24092;53.370;-6.588;2022-10-15T04:15:38;98903.63;;;2.90;100.00
38289;BME280;24092;53.370;-6.588;2022-10-15T04:18:05;98899.86;;;2.95;100.00
38289;BME280;24092;53.370;-6.588;2022-10-15T04:20:32;98906.33;;;3.27;100.00
38289;BME280;24092;53.370;-6.588;2022-10-15T04:22:59;98904.28;;;2.70;100.00
38289;BME280;24092;53.370;-6.588;2022-10-15T04:25:26;98904.45;;;2.69;100.00
38289;BME280;24092;53.370;-6.588;2022-10-15T04:27:54;98902.42;;;2.45;100.00
38289;BME280;24092;53.370;-6.588;2022-10-15T04:30:21;98898.27;;;2.38;100.00
38289;BME280;24092;53.370;-6.588;2022-10-15T04:32:50;98903.29;;;2.56;100.00
38289;BME280;24092;53.370;-6.588;2022-10-15T04:35:17;98901.18;;;2.53;100.00
38289;BME280;24092;53.370;-6.588;2022-10-15T04:37:45;98904.93;;;2.66;100.00
38289;BME280;24092;53.370;-6.588;2022-10-15T04:40:12;98900.86;;;2.64;100.00
38289;BME280;24092;53.370;-6.588;2022-10-15T04:42:40;98898.37;;;2.28;100.00
38289;BME280;24092;53.370;-6.588;2022-10-15T04:45:08;98903.44;;;2.32;100.00
38289;BME280;24092;53.370;-6.588;2022-10-15T04:47:35;98909.72;;;2.50;100.00
38289;BME280;24092;53.370;-6.588;2022-10-15T04:50:02;98922.60;;;1.60;100.00
38289;BME280;24092;53.370;-6.588;2022-10-15T04:52:30;98913.60;;;2.29;100.00
38289;BME280;24092;53.370;-6.588;2022-10-15T04:54:57;98917.16;;;2.23;100.00
38289;BME280;24092;53.370;-6.588;2022-10-15T04:57:24;98917.40;;;2.56;100.00
38289;BME280;24092;53.370;-6.588;2022-10-15T04:59:51;98916.33;;;2.34;100.00
38289;BME280;24092;53.370;-6.588;2022-10-15T05:02:18;98924.84;;;2.26;100.00
38289;BME280;24092;53.370;-6.588;2022-10-15T05:04:45;98920.86;;;2.54;100.00
38289;BME280;24092;53.370;-6.588;2022-10-15T05:07:12;98916.66;;;1.93;100.00
38289;BME280;24092;53.370;-6.588;2022-10-15T05:09:40;98928.38;;;2.00;100.00
38289;BME280;24092;53.370;-6.588;2022-10-15T05:12:07;98928.47;;;2.16;100.00
38289;BME280;24092;53.370;-6.588;2022-10-15T05:14:34;98928.48;;;2.69;100.00
38289;BME280;24092;53.370;-6.588;2022-10-15T05:17:01;98935.04;;;2.22;100.00
38289;BME280;24092;53.370;-6.588;2022-10-15T05:19:28;98932.85;;;2.27;100.00
38289;BME280;24092;53.370;-6.588;2022-10-15T05:21:55;98939.56;;;2.59;100.00
38289;BME280;24092;53.370;-6.588;2022-10-15T05:24:22;98941.91;;;2.60;100.00
38289;BME280;24092;53.370;-6.588;2022-10-15T05:26:49;98941.94;;;2.54;100.00
38289;BME280;24092;53.370;-6.588;2022-10-15T05:29:17;98937.77;;;2.24;100.00
38289;BME280;24092;53.370;-6.588;2022-10-15T05:31:44;98942.26;;;1.76;100.00
38289;BME280;24092;53.370;-6.588;2022-10-15T05:34:12;98939.66;;;1.23;100.00
38289;BME280;24092;53.370;-6.588;2022-10-15T05:36:39;98940.81;;;2.41;100.00
38289;BME280;24092;53.370;-6.588;2022-10-15T05:39:06;98938.34;;;2.10;100.00
38289;BME280;24092;53.370;-6.588;2022-10-15T05:41:33;98932.31;;;2.46;100.00
38289;BME280;24092;53.370;-6.588;2022-10-15T05:44:00;98936.62;;;2.11;100.00
38289;BME280;24092;53.370;-6.588;2022-10-15T05:46:27;98932.04;;;1.90;100.00
38289;BME280;24092;53.370;-6.588;2022-10-15T05:48:56;98930.43;;;1.94;100.00
38289;BME280;24092;53.370;-6.588;2022-10-15T05:51:25;98934.18;;;2.36;100.00
38289;BME280;24092;53.370;-6.588;2022-10-15T05:53:53;98928.44;;;1.69;100.00
38289;BME280;24092;53.370;-6.588;2022-10-15T05:56:21;98930.59;;;2.02;100.00
38289;BME280;24092;53.370;-6.588;2022-10-15T05:58:49;98930.26;;;1.85;100.00
38289;BME280;24092;53.370;-6.588;2022-10-15T06:01:16;98932.53;;;1.93;100.00
38289;BME280;24092;53.370;-6.588;2022-10-15T06:03:44;98937.38;;;1.40;100.00
38289;BME280;24092;53.370;-6.588;2022-10-15T06:06:14;98948.16;;;1.55;100.00
38289;BME280;24092;53.370;-6.588;2022-10-15T06:08:41;98953.70;;;1.49;100.00
38289;BME280;24092;53.370;-6.588;2022-10-15T06:11:08;98948.82;;;1.50;100.00
38289;BME280;24092;53.370;-6.588;2022-10-15T06:13:37;98946.42;;;1.25;100.00
38289;BME280;24092;53.370;-6.588;2022-10-15T06:16:05;98943.71;;;1.69;100.00
38289;BME280;24092;53.370;-6.588;2022-10-15T06:18:32;98941.12;;;1.67;100.00
38289;BME280;24092;53.370;-6.588;2022-10-15T06:20:59;98938.74;;;1.46;100.00
38289;BME280;24092;53.370;-6.588;2022-10-15T06:23:26;98935.92;;;1.82;100.00
38289;BME280;24092;53.370;-6.588;2022-10-15T06:25:54;98931.24;;;1.81;100.00
38289;BME280;24092;53.370;-6.588;2022-10-15T06:28:21;98932.00;;;2.00;100.00
38289;BME280;24092;53.370;-6.588;2022-10-15T06:30:49;98928.64;;;1.82;100.00
38289;BME280;24092;53.370;-6.588;2022-10-15T06:33:16;98929.28;;;1.61;100.00
38289;BME280;24092;53.370;-6.588;2022-10-15T06:35:43;98921.74;;;1.89;100.00
38289;BME280;24092;53.370;-6.588;2022-10-15T06:38:10;98920.42;;;2.26;100.00
38289;BME280;24092;53.370;-6.588;2022-10-15T06:40:38;98923.90;;;2.44;100.00
38289;BME280;24092;53.370;-6.588;2022-10-15T06:43:06;98921.61;;;2.41;100.00
38289;BME280;24092;53.370;-6.588;2022-10-15T06:45:35;98921.71;;;2.35;100.00
38289;BME280;24092;53.370;-6.588;2022-10-15T06:48:02;98927.41;;;2.07;100.00
38289;BME280;24092;53.370;-6.588;2022-10-15T06:50:30;98930.29;;;2.06;100.00
38289;BME280;24092;53.370;-6.588;2022-10-15T06:52:57;98927.82;;;1.90;100.00
38289;BME280;24092;53.370;-6.588;2022-10-15T06:55:24;98921.52;;;1.60;100.00
38289;BME280;24092;53.370;-6.588;2022-10-15T06:57:51;98922.37;;;2.18;100.00
38289;BME280;24092;53.370;-6.588;2022-10-15T07:00:18;98921.89;;;1.81;100.00
38289;BME280;24092;53.370;-6.588;2022-10-15T07:02:45;98916.50;;;1.81;100.00
38289;BME280;24092;53.370;-6.588;2022-10-15T07:05:12;98917.26;;;1.91;100.00
38289;BME280;24092;53.370;-6.588;2022-10-15T07:07:40;98918.65;;;1.72;100.00
38289;BME280;24092;53.370;-6.588;2022-10-15T07:10:07;98925.57;;;2.25;100.00
38289;BME280;24092;53.370;-6.588;2022-10-15T07:12:34;98923.11;;;1.98;100.00
38289;BME280;24092;53.370;-6.588;2022-10-15T07:15:02;98915.96;;;1.52;100.00
38289;BME280;24092;53.370;-6.588;2022-10-15T07:17:29;98915.61;;;1.83;100.00
38289;BME280;24092;53.370;-6.588;2022-10-15T07:19:56;98919.10;;;1.43;100.00
38289;BME280;24092;53.370;-6.588;2022-10-15T07:22:23;98914.73;;;1.48;100.00
38289;BME280;24092;53.370;-6.588;2022-10-15T07:24:50;98921.00;;;1.72;100.00
38289;BME280;24092;53.370;-6.588;2022-10-15T07:27:17;98924.71;;;1.84;100.00
38289;BME280;24092;53.370;-6.588;2022-10-15T07:29:44;98921.95;;;2.39;100.00
38289;BME280;24092;53.370;-6.588;2022-10-15T07:32:11;98913.91;;;2.12;100.00
38289;BME280;24092;53.370;-6.588;2022-10-15T07:34:38;98917.23;;;2.55;100.00
38289;BME280;24092;53.370;-6.588;2022-10-15T07:37:05;98905.53;;;2.51;100.00
38289;BME280;24092;53.370;-6.588;2022-10-15T07:39:33;98913.87;;;2.37;100.00
38289;BME280;24092;53.370;-6.588;2022-10-15T07:42:00;98915.46;;;2.26;100.00
38289;BME280;24092;53.370;-6.588;2022-10-15T07:44:27;98909.09;;;2.01;100.00
38289;BME280;24092;53.370;-6.588;2022-10-15T07:46:54;98907.92;;;2.31;100.00
38289;BME280;24092;53.370;-6.588;2022-10-15T07:49:21;98900.99;;;2.32;100.00
38289;BME280;24092;53.370;-6.588;2022-10-15T07:51:48;98905.39;;;2.14;100.00
38289;BME280;24092;53.370;-6.588;2022-10-15T07:54:15;98891.91;;;2.40;100.00
38289;BME280;24092;53.370;-6.588;2022-10-15T07:56:42;98897.59;;;2.24;100.00
38289;BME280;24092;53.370;-6.588;2022-10-15T07:59:09;98900.20;;;2.40;100.00
38289;BME280;24092;53.370;-6.588;2022-10-15T08:01:36;98905.09;;;2.23;100.00
38289;BME280;24092;53.370;-6.588;2022-10-15T08:04:03;98903.90;;;2.42;100.00
38289;BME280;24092;53.370;-6.588;2022-10-15T08:06:31;98912.69;;;2.80;100.00
38289;BME280;24092;53.370;-6.588;2022-10-15T08:08:58;98921.30;;;2.78;100.00
38289;BME280;24092;53.370;-6.588;2022-10-15T08:11:26;98920.16;;;2.73;100.00
38289;BME280;24092;53.370;-6.588;2022-10-15T08:13:53;98931.75;;;3.00;100.00
38289;BME280;24092;53.370;-6.588;2022-10-15T08:16:20;98934.13;;;2.82;100.00
38289;BME280;24092;53.370;-6.588;2022-10-15T08:18:47;98935.73;;;2.19;100.00
38289;BME280;24092;53.370;-6.588;2022-10-15T08:21:14;98931.10;;;2.92;100.00
38289;BME280;24092;53.370;-6.588;2022-10-15T08:23:42;98941.38;;;2.74;100.00
38289;BME280;24092;53.370;-6.588;2022-10-15T08:26:09;98936.56;;;2.07;100.00
38289;BME280;24092;53.370;-6.588;2022-10-15T08:28:36;98940.55;;;2.61;100.00
38289;BME280;24092;53.370;-6.588;2022-10-15T08:31:04;98937.60;;;2.03;100.00
38289;BME280;24092;53.370;-6.588;2022-10-15T08:33:31;98931.00;;;2.66;100.00
38289;BME280;24092;53.370;-6.588;2022-10-15T08:36:00;98915.99;;;2.99;100.00
38289;BME280;24092;53.370;-6.588;2022-10-15T08:38:27;98908.00;;;2.90;100.00
38289;BME280;24092;53.370;-6.588;2022-10-15T08:40:57;98912.81;;;3.51;100.00
38289;BME280;24092;53.370;-6.588;2022-10-15T08:43:28;98915.31;;;3.35;100.00
38289;BME280;24092;53.370;-6.588;2022-10-15T08:45:59;98920.60;;;3.68;100.00
38289;BME280;24092;53.370;-6.588;2022-10-15T08:48:30;98919.01;;;3.63;100.00
38289;BME280;24092;53.370;-6.588;2022-10-15T08:51:01;98922.36;;;3.43;100.00
38289;BME280;24092;53.370;-6.588;2022-10-15T08:53:32;98912.62;;;3.57;100.00
38289;BME280;24092;53.370;-6.588;2022-10-15T08:56:04;98912.86;;;3.06;100.00
38289;BME280;24092;53.370;-6.588;2022-10-15T08:58:44;98919.00;;;3.55;100.00
38289;BME280;24092;53.370;-6.588;2022-10-15T09:01:20;98916.82;;;3.74;100.00
38289;BME280;24092;53.370;-6.588;2022-10-15T09:03:56;98920.82;;;3.86;100.00
38289;BME280;24092;53.370;-6.588;2022-10-15T09:06:29;98939.55;;;4.13;100.00
38289;BME280;24092;53.370;-6.588;2022-10-15T09:09:04;98951.67;;;4.47;100.00
38289;BME280;24092;53.370;-6.588;2022-10-15T09:11:40;98953.26;;;3.72;100.00
38289;BME280;24092;53.370;-6.588;2022-10-15T09:14:13;98959.36;;;4.10;100.00
38289;BME280;24092;53.370;-6.588;2022-10-15T09:16:44;98974.10;;;3.68;100.00
38289;BME280;24092;53.370;-6.588;2022-10-15T09:19:16;98965.75;;;3.78;100.00
38289;BME280;24092;53.370;-6.588;2022-10-15T09:21:45;98960.34;;;3.79;100.00
38289;BME280;24092;53.370;-6.588;2022-10-15T09:24:18;98933.01;;;3.24;100.00
38289;BME280;24092;53.370;-6.588;2022-10-15T09:26:53;98935.56;;;3.31;100.00
38289;BME280;24092;53.370;-6.588;2022-10-15T09:29:27;98923.31;;;3.31;100.00
38289;BME280;24092;53.370;-6.588;2022-10-15T09:32:05;98914.26;;;3.55;100.00
38289;BME280;24092;53.370;-6.588;2022-10-15T09:34:39;98911.44;;;3.85;100.00
38289;BME280;24092;53.370;-6.588;2022-10-15T09:37:15;98912.45;;;3.57;100.00
38289;BME280;24092;53.370;-6.588;2022-10-15T09:39:55;98908.99;;;3.36;100.00
38289;BME280;24092;53.370;-6.588;2022-10-15T09:42:28;98909.73;;;3.78;100.00
38289;BME280;24092;53.370;-6.588;2022-10-15T09:44:58;98907.54;;;3.97;100.00
38289;BME280;24092;53.370;-6.588;2022-10-15T09:47:29;98903.89;;;3.63;100.00
38289;BME280;24092;53.370;-6.588;2022-10-15T09:49:56;98898.53;;;4.14;100.00
38289;BME280;24092;53.370;-6.588;2022-10-15T09:52:34;98900.82;;;4.21;100.00
38289;BME280;24092;53.370;-6.588;2022-10-15T09:55:14;98901.14;;;4.44;100.00
38289;BME280;24092;53.370;-6.588;2022-10-15T09:57:49;98890.96;;;4.42;100.00
38289;BME280;24092;53.370;-6.588;2022-10-15T10:00:18;98889.87;;;4.40;100.00
38289;BME280;24092;53.370;-6.588;2022-10-15T10:03:04;98884.90;;;4.17;100.00
38289;BME280;24092;53.370;-6.588;2022-10-15T10:05:36;98880.34;;;4.30;100.00
38289;BME280;24092;53.370;-6.588;2022-10-15T10:08:07;98879.85;;;4.45;100.00
38289;BME280;24092;53.370;-6.588;2022-10-15T10:10:36;98887.43;;;3.88;100.00
38289;BME280;24092;53.370;-6.588;2022-10-15T10:13:08;98880.13;;;4.39;100.00
38289;BME280;24092;53.370;-6.588;2022-10-15T10:15:46;98873.86;;;4.37;100.00
38289;BME280;24092;53.370;-6.588;2022-10-15T10:18:19;98869.71;;;4.36;100.00
38289;BME280;24092;53.370;-6.588;2022-10-15T10:20:53;98868.44;;;4.36;100.00
38289;BME280;24092;53.370;-6.588;2022-10-15T10:23:23;98869.09;;;4.38;100.00
38289;BME280;24092;53.370;-6.588;2022-10-15T10:25:54;98867.15;;;4.60;100.00
38289;BME280;24092;53.370;-6.588;2022-10-15T10:28:27;98868.02;;;4.59;100.00
38289;BME280;24092;53.370;-6.588;2022-10-15T10:31:01;98864.10;;;4.23;100.00
38289;BME280;24092;53.370;-6.588;2022-10-15T10:33:32;98872.19;;;4.18;100.00
38289;BME280;24092;53.370;-6.588;2022-10-15T10:36:01;98862.61;;;4.75;100.00
38289;BME280;24092;53.370;-6.588;2022-10-15T10:38:31;98866.78;;;4.61;100.00
38289;BME280;24092;53.370;-6.588;2022-10-15T10:41:00;98858.96;;;4.55;100.00
38289;BME280;24092;53.370;-6.588;2022-10-15T10:43:29;98856.12;;;4.30;100.00
38289;BME280;24092;53.370;-6.588;2022-10-15T10:45:58;98852.89;;;4.77;100.00
38289;BME280;24092;53.370;-6.588;2022-10-15T10:48:27;98853.50;;;4.58;100.00
38289;BME280;24092;53.370;-6.588;2022-10-15T10:51:06;98856.88;;;4.66;100.00
38289;BME280;24092;53.370;-6.588;2022-10-15T10:53:39;98854.46;;;5.22;100.00
38289;BME280;24092;53.370;-6.588;2022-10-15T10:56:10;98842.40;;;5.04;100.00
38289;BME280;24092;53.370;-6.588;2022-10-15T10:58:37;98833.96;;;5.46;100.00
38289;BME280;24092;53.370;-6.588;2022-10-15T11:01:04;98835.65;;;5.27;100.00
38289;BME280;24092;53.370;-6.588;2022-10-15T11:03:35;98835.20;;;5.34;100.00
38289;BME280;24092;53.370;-6.588;2022-10-15T11:06:21;98830.74;;;4.91;100.00
38289;BME280;24092;53.370;-6.588;2022-10-15T11:08:57;98826.88;;;5.80;100.00
38289;BME280;24092;53.370;-6.588;2022-10-15T11:11:36;98825.34;;;5.39;100.00
38289;BME280;24092;53.370;-6.588;2022-10-15T11:14:18;98824.36;;;5.49;100.00
38289;BME280;24092;53.370;-6.588;2022-10-15T11:16:54;98824.37;;;5.64;100.00
38289;BME280;24092;53.370;-6.588;2022-10-15T11:19:29;98823.52;;;5.44;100.00
38289;BME280;24092;53.370;-6.588;2022-10-15T11:22:12;98822.12;;;5.34;100.00
38289;BME280;24092;53.370;-6.588;2022-10-15T11:24:48;98822.63;;;5.53;100.00
38289;BME280;24092;53.370;-6.588;2022-10-15T11:27:29;98816.78;;;5.46;100.00
38289;BME280;24092;53.370;-6.588;2022-10-15T11:30:08;98820.78;;;5.42;100.00
38289;BME280;24092;53.370;-6.588;2022-10-15T11:32:50;98818.38;;;6.00;100.00
38289;BME280;24092;53.370;-6.588;2022-10-15T11:35:27;98812.50;;;5.76;100.00
38289;BME280;24092;53.370;-6.588;2022-10-15T11:38:05;98813.01;;;5.61;100.00
38289;BME280;24092;53.370;-6.588;2022-10-15T11:40:45;98808.01;;;5.88;100.00
38289;BME280;24092;53.370;-6.588;2022-10-15T11:43:34;98809.51;;;5.23;100.00
38289;BME280;24092;53.370;-6.588;2022-10-15T11:46:13;98809.01;;;5.72;100.00
38289;BME280;24092;53.370;-6.588;2022-10-15T11:48:53;98807.88;;;5.55;100.00
38289;BME280;24092;53.370;-6.588;2022-10-15T11:51:30;98808.53;;;5.42;100.00
38289;BME280;24092;53.370;-6.588;2022-10-15T11:54:16;98805.84;;;5.81;100.00
38289;BME280;24092;53.370;-6.588;2022-10-15T11:56:49;98813.90;;;6.53;100.00
38289;BME280;24092;53.370;-6.588;2022-10-15T11:59:28;98806.85;;;6.05;100.00
38289;BME280;24092;53.370;-6.588;2022-10-15T12:02:00;98798.12;;;6.68;100.00
38289;BME280;24092;53.370;-6.588;2022-10-15T12:04:33;98789.41;;;6.12;100.00
38289;BME280;24092;53.370;-6.588;2022-10-15T12:07:04;98780.40;;;6.29;100.00
38289;BME280;24092;53.370;-6.588;2022-10-15T12:09:35;98767.45;;;6.54;100.00
38289;BME280;24092;53.370;-6.588;2022-10-15T12:12:07;98778.09;;;6.14;100.00
38289;BME280;24092;53.370;-6.588;2022-10-15T12:14:42;98794.73;;;6.49;100.00
38289;BME280;24092;53.370;-6.588;2022-10-15T12:17:16;98769.01;;;5.81;100.00
38289;BME280;24092;53.370;-6.588;2022-10-15T12:19:50;98761.22;;;5.04;100.00
38289;BME280;24092;53.370;-6.588;2022-10-15T12:22:39;98784.18;;;4.49;100.00
38289;BME280;24092;53.370;-6.588;2022-10-15T12:25:39;98778.26;;;4.38;100.00
38289;BME280;24092;53.370;-6.588;2022-10-15T12:28:13;98778.53;;;4.30;100.00
38289;BME280;24092;53.370;-6.588;2022-10-15T12:30:42;98793.31;;;4.18;100.00
38289;BME280;24092;53.370;-6.588;2022-10-15T12:33:24;98800.61;;;4.26;100.00
38289;BME280;24092;53.370;-6.588;2022-10-15T12:35:54;98812.78;;;3.71;100.00
38289;BME280;24092;53.370;-6.588;2022-10-15T12:38:27;98809.06;;;4.13;100.00
38289;BME280;24092;53.370;-6.588;2022-10-15T12:40:57;98824.18;;;3.71;100.00
38289;BME280;24092;53.370;-6.588;2022-10-15T12:43:25;98823.45;;;3.62;100.00
38289;BME280;24092;53.370;-6.588;2022-10-15T12:45:56;98818.14;;;3.41;100.00
38289;BME280;24092;53.370;-6.588;2022-10-15T12:48:34;98788.62;;;3.10;100.00
38289;BME280;24092;53.370;-6.588;2022-10-15T12:51:34;98774.33;;;3.59;100.00
38289;BME280;24092;53.370;-6.588;2022-10-15T12:54:01;98755.62;;;3.24;100.00
38289;BME280;24092;53.370;-6.588;2022-10-15T12:56:37;98744.40;;;3.46;100.00
38289;BME280;24092;53.370;-6.588;2022-10-15T12:59:28;98736.99;;;3.53;100.00
38289;BME280;24092;53.370;-6.588;2022-10-15T13:01:55;98728.82;;;3.84;100.00
38289;BME280;24092;53.370;-6.588;2022-10-15T13:04:22;98728.76;;;3.72;100.00
38289;BME280;24092;53.370;-6.588;2022-10-15T13:06:50;98723.30;;;4.10;100.00
38289;BME280;24092;53.370;-6.588;2022-10-15T13:09:27;98720.52;;;4.45;100.00